Time;durP1;ratioP1;P1;durP2;ratioP2;P2;SDS_P1;SDS_P2;PMS_P1;PMS_P2;Temp;Humidity;BMP_temperature;BMP_pressure;BME280_temperature;BME280_humidity;BME280_pressure;Samples;Min_cycle;Max_cycle;Signal;HPM_P1;HPM_P2
2023/02/16 00:01:00;;;;;;;18.50;10.32;;;;;;;-2.53;100.00;99397.03;4194993;28;20040;-75
2023/02/16 00:03:01;;;;;;;23.67;12.07;;;;;;;-2.53;100.00;99394.31;4193877;28;20536;-75
2023/02/16 00:05:01;;;;;;;18.13;9.60;;;;;;;-2.52;100.00;99393.25;4193466;28;20431;-75
2023/02/16 00:07:01;;;;;;;21.77;12.23;;;;;;;-2.49;100.00;99398.09;4195587;28;20067;-75
2023/02/16 00:09:01;;;;;;;20.40;10.93;;;;;;;-2.55;100.00;99400.84;4191204;28;20080;-75
2023/02/16 00:13:46;;;;;;;16.45;9.50;;;;;;;-2.73;100.00;99401.34;4191823;28;20043;-75
2023/02/16 00:15:47;;;;;;;18.98;9.25;;;;;;;-2.77;100.00;99415.69;4193220;28;20447;-75
2023/02/16 00:17:47;;;;;;;19.73;9.57;;;;;;;-2.85;100.00;99400.78;4193212;28;20036;-75
2023/02/16 00:19:47;;;;;;;19.08;10.02;;;;;;;-2.80;100.00;99413.53;4193957;28;20044;-75
2023/02/16 00:21:50;;;;;;;20.25;10.73;;;;;;;-2.88;100.00;99407.56;4190471;28;20056;-75
2023/02/16 00:23:51;;;;;;;;;;;;;;;-2.83;100.00;99401.31;4188177;28;20500;-75
2023/02/16 00:25:51;;;;;;;19.90;9.82;;;;;;;-2.85;100.00;99392.66;4192634;28;19916;-75
2023/02/16 00:27:52;;;;;;;18.08;10.73;;;;;;;-2.85;100.00;99396.16;4192603;28;20831;-75
2023/02/16 00:29:52;;;;;;;19.02;9.02;;;;;;;-2.75;100.00;99405.41;4192681;28;20040;-75
2023/02/16 00:31:54;;;;;;;18.40;9.85;;;;;;;-2.80;100.00;99400.81;4197334;28;20068;-75
2023/02/16 00:33:54;;;;;;;23.55;9.80;;;;;;;-2.86;100.00;99408.09;4189220;28;20079;-75
2023/02/16 00:35:55;;;;;;;20.10;11.07;;;;;;;-2.85;100.00;99411.59;4189060;28;20069;-75
2023/02/16 00:37:55;;;;;;;19.63;10.57;;;;;;;-2.89;100.00;99414.06;4191488;28;20044;-75
2023/02/16 00:39:55;;;;;;;17.50;10.43;;;;;;;-2.86;100.00;99407.28;4192414;28;20133;-75
2023/02/16 00:42:05;;;;;;;20.17;10.45;;;;;;;-2.88;100.00;99409.44;4191916;28;20460;-75
2023/02/16 00:44:13;;;;;;;20.83;10.75;;;;;;;-2.86;100.00;99416.22;4191568;28;20044;-75
2023/02/16 00:46:13;;;;;;;24.08;11.10;;;;;;;-2.83;100.00;99412.16;4193507;28;20103;-75
2023/02/16 00:48:14;;;;;;;21.73;10.88;;;;;;;-2.85;100.00;99414.31;4192250;28;20098;-74
2023/02/16 00:50:46;;;;;;;22.35;11.48;;;;;;;-2.87;100.00;99414.59;4193260;28;20750;-75
2023/02/16 00:52:47;;;;;;;23.30;11.17;;;;;;;-2.81;100.00;99412.72;4163349;28;20082;-75
2023/02/16 00:54:47;;;;;;;20.17;9.63;;;;;;;-2.79;100.00;99415.97;4192896;28;20602;-75
2023/02/16 00:56:48;;;;;;;20.95;10.52;;;;;;;-2.76;100.00;99415.41;4192440;28;20079;-75
2023/02/16 00:58:51;;;;;;;22.23;11.20;;;;;;;-2.69;100.00;99410.56;4193927;28;20040;-75
2023/02/16 01:00:54;;;;;;;21.20;11.88;;;;;;;-2.71;100.00;99409.22;4190059;28;20064;-74
2023/02/16 01:03:00;;;;;;;16.48;9.95;;;;;;;-2.70;100.00;99405.41;4194716;28;20044;-75
2023/02/16 01:05:01;;;;;;;19.15;10.80;;;;;;;-2.70;100.00;99406.22;4187984;28;20475;-75
2023/02/16 01:11:39;;;;;;;20.42;10.18;;;;;;;-2.69;100.00;99402.44;4192092;28;20047;-75
2023/02/16 01:13:46;;;;;;;18.05;10.18;;;;;;;-2.73;100.00;99404.06;4191178;28;20792;-75
2023/02/16 01:15:46;;;;;;;17.05;9.85;;;;;;;-2.78;100.00;99405.94;4194872;28;20098;-75
2023/02/16 01:17:47;;;;;;;20.98;10.05;;;;;;;-2.76;100.00;99409.19;4188339;28;20040;-75
2023/02/16 01:19:47;;;;;;;18.63;9.73;;;;;;;-2.83;100.00;99396.72;4190286;28;20044;-75
2023/02/16 01:21:47;;;;;;;15.13;9.73;;;;;;;-2.86;100.00;99399.16;4194277;28;20357;-75
2023/02/16 01:23:48;;;;;;;18.08;10.13;;;;;;;-2.95;100.00;99387.22;4187706;28;20091;-75
2023/02/16 01:25:48;;;;;;;20.08;10.73;;;;;;;-2.95;100.00;99406.19;4196012;28;20040;-75
2023/02/16 01:27:49;;;;;;;22.30;11.95;;;;;;;-3.01;100.00;99401.81;4197728;28;20058;-75
2023/02/16 01:29:49;;;;;;;20.50;10.63;;;;;;;-2.99;100.00;99411.28;4192503;28;20571;-75
2023/02/16 01:31:49;;;;;;;17.00;9.15;;;;;;;-3.02;100.00;99403.72;4193980;28;20716;-75
2023/02/16 01:33:50;;;;;;;19.63;11.00;;;;;;;-3.08;100.00;99414.78;4196772;28;20197;-75
2023/02/16 01:35:52;;;;;;;19.60;9.30;;;;;;;-3.07;100.00;99421.81;4195072;28;20076;-75
2023/02/16 01:37:52;;;;;;;17.40;9.95;;;;;;;-3.15;100.00;99415.84;4191594;28;20048;-75
2023/02/16 01:39:53;;;;;;;23.15;11.60;;;;;;;-3.10;100.00;99417.75;4194695;28;20407;-75
2023/02/16 01:42:02;;;;;;;20.98;10.88;;;;;;;-3.10;100.00;99417.75;4193733;28;20418;-75
2023/02/16 01:44:20;;;;;;;19.20;9.82;;;;;;;-3.15;100.00;99418.53;4194139;28;20083;-75
2023/02/16 01:46:28;;;;;;;17.92;10.02;;;;;;;-3.15;100.00;99415.03;4191654;28;20105;-75
2023/02/16 01:48:30;;;;;;;18.85;10.05;;;;;;;-3.17;100.00;99411.78;4192666;28;20342;-75
2023/02/16 01:50:42;;;;;;;20.45;10.38;;;;;;;-3.11;100.00;99402.59;4189967;28;20048;-75
2023/02/16 01:52:52;;;;;;;19.15;10.23;;;;;;;-3.13;100.00;99411.00;4195639;28;20044;-75
2023/02/16 01:54:59;;;;;;;20.90;10.77;;;;;;;-3.09;100.00;99410.47;4195239;28;20128;-75
2023/02/16 01:57:08;;;;;;;16.58;10.25;;;;;;;-3.00;100.00;99401.53;4196588;28;20056;-75
2023/02/16 01:59:18;;;;;;;20.17;10.77;;;;;;;-2.94;100.00;99403.19;4193850;28;20388;-75
2023/02/16 02:01:43;;;;;;;20.08;10.95;;;;;;;-2.95;100.00;99408.88;4197865;28;20118;-75
2023/02/16 02:06:03;;;;;;;20.73;10.55;;;;;;;-2.89;100.00;99405.94;4194641;28;20120;-75
2023/02/16 02:08:28;;;;;;;18.45;11.00;;;;;;;-2.87;100.00;99400.25;4192591;28;20477;-75
2023/02/16 02:10:28;;;;;;;19.42;10.68;;;;;;;-2.86;100.00;99399.97;4192184;28;20084;-75
2023/02/16 02:12:36;;;;;;;22.02;10.40;;;;;;;-2.87;100.00;99402.94;4192473;28;20059;-75
2023/02/16 02:14:38;;;;;;;20.13;10.25;;;;;;;-2.89;100.00;99397.81;4189932;28;20080;-75
2023/02/16 02:16:38;;;;;;;21.83;11.20;;;;;;;-2.89;100.00;99400.50;4189920;28;20044;-75
2023/02/16 02:18:39;;;;;;;23.20;10.98;;;;;;;-2.89;100.00;99399.69;4192056;28;20126;-75
2023/02/16 02:23:41;;;;;;;22.20;10.80;;;;;;;-2.93;100.00;99398.59;4192623;28;20616;-75
2023/02/16 02:25:59;;;;;;;23.83;11.15;;;;;;;-2.91;100.00;99389.09;4193215;28;20123;-75
2023/02/16 02:28:16;;;;;;;20.33;11.20;;;;;;;-2.93;100.00;99393.19;4192551;28;20136;-75
2023/02/16 02:30:36;;;;;;;22.83;11.98;;;;;;;-2.98;100.00;99387.72;4191454;28;20036;-75
2023/02/16 02:32:53;;;;;;;23.73;11.65;;;;;;;-3.00;100.00;99393.41;4194179;28;20048;-75
2023/02/16 02:34:53;;;;;;;23.80;11.88;;;;;;;-3.00;100.00;99388.00;4193423;28;20401;-75
2023/02/16 02:37:12;;;;;;;23.10;11.68;;;;;;;-2.96;100.00;99377.47;4194859;28;20048;-75
2023/02/16 02:39:31;;;;;;;25.08;12.13;;;;;;;-2.97;100.00;99379.38;4195273;28;20029;-75
2023/02/16 02:42:04;;;;;;;21.85;11.30;;;;;;;-3.00;100.00;99379.06;4196310;28;20141;-75
2023/02/16 02:44:07;;;;;;;21.88;11.70;;;;;;;-2.97;100.00;99370.44;4192075;28;20106;-75
2023/02/16 02:46:26;;;;;;;23.25;11.00;;;;;;;-2.99;100.00;99376.09;4195420;28;20029;-75
2023/02/16 02:48:31;;;;;;;24.10;11.68;;;;;;;-2.99;100.00;99367.97;4192732;28;20526;-75
2023/02/16 02:50:40;;;;;;;16.85;10.73;;;;;;;-3.00;100.00;99374.47;4194591;28;20519;-75
2023/02/16 02:52:40;;;;;;;22.63;11.52;;;;;;;-3.06;100.00;99380.13;4189622;28;20570;-75
2023/02/16 03:01:55;;;;;;;19.75;10.45;;;;;;;-3.30;100.00;99380.63;4185020;28;20133;-75
2023/02/16 03:03:56;;;;;;;24.58;11.00;;;;;;;-3.35;100.00;99393.31;4194030;28;20063;-75
2023/02/16 03:05:56;;;;;;;20.50;11.48;;;;;;;-3.38;100.00;99389.25;4189340;28;20063;-75
2023/02/16 03:08:13;;;;;;;23.08;10.82;;;;;;;-3.37;100.00;99388.16;4192193;28;20052;-75
2023/02/16 03:12:57;;;;;;;16.42;9.23;;;;;;;-3.40;100.00;99381.38;4194285;28;20117;-75
2023/02/16 03:14:59;;;;;;;;;;;;;;;-3.33;100.00;99386.56;4193311;28;20076;-75
2023/02/16 03:31:10;;;;;;;23.90;12.40;;;;;;;-3.52;100.00;99386.22;4191115;28;20047;-75
2023/02/16 03:33:11;;;;;;;26.58;14.13;;;;;;;-3.57;100.00;99380.75;4189223;28;20053;-74
2023/02/16 03:35:12;;;;;;;29.38;13.15;;;;;;;-3.53;100.00;99387.28;4193372;28;20206;-75
2023/02/16 03:37:12;;;;;;;23.67;12.95;;;;;;;-3.57;100.00;99386.19;4190409;28;20055;-75
2023/02/16 03:39:13;;;;;;;30.38;13.45;;;;;;;-3.59;100.00;99380.22;4195630;28;20079;-75
2023/02/16 03:41:13;;;;;;;26.70;13.27;;;;;;;-3.62;100.00;99386.16;4194133;28;20259;-75
2023/02/16 03:43:14;;;;;;;24.27;12.65;;;;;;;-3.67;100.00;99378.81;4196031;28;20496;-75
2023/02/16 03:45:14;;;;;;;27.90;12.85;;;;;;;-3.63;100.00;99383.72;4191321;28;20514;-75
2023/02/16 03:47:15;;;;;;;29.08;12.00;;;;;;;-3.65;100.00;99394.78;4190673;28;20036;-75
2023/02/16 03:49:16;;;;;;;25.67;12.07;;;;;;;-3.67;100.00;99383.44;4194563;28;20036;-75
2023/02/16 03:51:17;;;;;;;21.95;12.43;;;;;;;-3.67;100.00;99388.84;4190807;28;20492;-75
2023/02/16 03:53:17;;;;;;;24.08;12.27;;;;;;;-3.77;100.00;99386.91;4190086;28;20048;-75
2023/02/16 03:55:18;;;;;;;22.08;11.88;;;;;;;-3.78;100.00;99390.69;4190758;28;20040;-75
2023/02/16 03:57:18;;;;;;;24.83;12.57;;;;;;;-3.73;100.00;99393.41;4190983;28;20051;-75
2023/02/16 03:59:19;;;;;;;27.67;13.50;;;;;;;-3.63;100.00;99389.13;4190840;28;20397;-75
2023/02/16 04:01:19;;;;;;;25.58;12.65;;;;;;;-3.59;100.00;99390.22;4192023;28;20097;-75
2023/02/16 04:03:20;;;;;;;22.92;11.82;;;;;;;-3.59;100.00;99384.81;4192785;28;20194;-75
2023/02/16 04:05:20;;;;;;;22.98;12.18;;;;;;;-3.58;100.00;99373.72;4191065;28;20041;-75
2023/02/16 04:07:20;;;;;;;20.42;11.45;;;;;;;-3.59;100.00;99368.59;4191013;28;20056;-75
2023/02/16 04:09:21;;;;;;;22.05;11.82;;;;;;;-3.58;100.00;99365.63;4190534;28;20044;-75
2023/02/16 04:13:40;;;;;;;22.90;12.88;;;;;;;-3.61;100.00;99376.97;4190015;28;20048;-75
2023/02/16 04:15:40;;;;;;;23.08;12.07;;;;;;;-3.59;100.00;99372.09;4191676;28;20044;-75
2023/02/16 04:17:41;;;;;;;24.75;12.45;;;;;;;-3.55;100.00;99365.09;4191034;28;20388;-75
2023/02/16 04:19:41;;;;;;;23.85;12.48;;;;;;;-3.60;100.00;99367.78;4190847;28;20454;-75
2023/02/16 04:21:41;;;;;;;25.58;11.70;;;;;;;-3.65;100.00;99366.94;4194200;28;20040;-75
2023/02/16 04:23:42;;;;;;;18.63;11.38;;;;;;;-3.68;100.00;99376.41;4196085;28;20044;-75
2023/02/16 04:25:42;;;;;;;24.20;12.70;;;;;;;-3.73;100.00;99366.34;4190476;28;20311;-75
2023/02/16 04:27:44;;;;;;;22.08;11.65;;;;;;;-3.70;100.00;99365.84;4190758;28;20055;-75
2023/02/16 04:29:44;;;;;;;25.58;12.20;;;;;;;-3.67;100.00;99365.31;4190493;28;20118;-75
2023/02/16 04:31:44;;;;;;;22.67;12.77;;;;;;;-3.69;100.00;99367.47;4192658;28;20048;-75
2023/02/16 04:33:44;;;;;;;25.60;11.60;;;;;;;-3.64;100.00;99363.16;4191304;28;20175;-75
2023/02/16 04:35:45;;;;;;;24.48;11.77;;;;;;;-3.69;100.00;99355.84;4190960;28;20428;-75
2023/02/16 04:37:45;;;;;;;23.08;11.57;;;;;;;-3.71;100.00;99360.69;4191005;28;20113;-75
2023/02/16 04:39:46;;;;;;;23.73;12.13;;;;;;;-3.69;100.00;99345.03;4191738;28;20919;-75
2023/02/16 04:41:46;;;;;;;20.17;11.60;;;;;;;-3.70;100.00;99349.63;4194103;28;20064;-75
2023/02/16 04:43:47;;;;;;;19.98;10.73;;;;;;;-3.70;100.00;99349.63;4189912;28;20060;-75
2023/02/16 04:45:47;;;;;;;21.65;11.18;;;;;;;-3.68;100.00;99338.53;4193233;28;20120;-75
2023/02/16 04:47:47;;;;;;;22.65;10.85;;;;;;;-3.73;100.00;99341.19;4189347;28;20424;-75
2023/02/16 04:49:47;;;;;;;22.98;10.88;;;;;;;-3.78;100.00;99335.78;4190814;28;20068;-75
2023/02/16 04:51:48;;;;;;;26.38;11.48;;;;;;;-3.84;100.00;99334.94;4193185;28;20514;-75
2023/02/16 04:53:48;;;;;;;21.58;12.25;;;;;;;-3.88;100.00;99324.94;4190379;28;20041;-75
2023/02/16 04:55:49;;;;;;;24.05;12.18;;;;;;;-3.88;100.00;99333.84;4190840;28;20343;-75
2023/02/16 04:57:49;;;;;;;24.83;12.25;;;;;;;-3.91;100.00;99337.06;4190606;28;20115;-75
2023/02/16 04:59:50;;;;;;;23.80;12.32;;;;;;;-3.92;100.00;99329.22;4194432;28;20484;-75
2023/02/16 05:01:50;;;;;;;35.35;16.20;;;;;;;-3.96;100.00;99334.34;4197270;28;20479;-75
2023/02/16 05:03:50;;;;;;;24.83;12.68;;;;;;;-3.92;100.00;99342.72;4191742;28;20044;-75
2023/02/16 05:05:51;;;;;;;23.55;12.00;;;;;;;-3.94;100.00;99337.59;4193562;28;20476;-75
2023/02/16 05:07:51;;;;;;;30.45;13.63;;;;;;;-3.98;100.00;99342.69;4194468;28;20056;-75
2023/02/16 05:09:51;;;;;;;26.13;11.93;;;;;;;-3.98;100.00;99331.88;4198846;28;20052;-75
2023/02/16 05:16:39;;;;;;;22.83;12.18;;;;;;;-4.04;100.00;99334.84;4193225;28;20098;-75
2023/02/16 05:18:39;;;;;;;30.35;12.40;;;;;;;-4.04;100.00;99341.06;4193675;28;20464;-75
2023/02/16 05:22:58;;;;;;;33.85;13.20;;;;;;;-4.05;100.00;99344.84;4192265;28;20094;-75
2023/02/16 05:25:02;;;;;;;32.20;15.80;;;;;;;-3.99;100.00;99345.66;4198571;28;20048;-75
2023/02/16 05:27:04;;;;;;;31.20;15.02;;;;;;;-3.88;100.00;99362.78;4193247;28;20047;-75
2023/02/16 05:29:05;;;;;;;30.48;15.27;;;;;;;-3.82;100.00;99348.19;4195915;28;20085;-75
2023/02/16 05:31:05;;;;;;;36.88;15.13;;;;;;;-3.85;100.00;99344.13;4194519;28;20076;-75
2023/02/16 05:33:05;;;;;;;33.67;16.48;;;;;;;-3.83;100.00;99346.56;4192924;28;20430;-75
2023/02/16 05:35:06;;;;;;;46.53;19.42;;;;;;;-3.85;100.00;99346.84;4196371;28;20072;-75
2023/02/16 05:37:06;;;;;;;34.50;19.30;;;;;;;-3.85;100.00;99354.13;4193343;28;20040;-75
2023/02/16 05:39:07;;;;;;;35.65;17.60;;;;;;;-3.86;100.00;99366.84;4193123;28;20139;-75
2023/02/16 05:41:07;;;;;;;32.13;16.35;;;;;;;-3.88;100.00;99363.59;4192758;28;20516;-75
2023/02/16 05:43:07;;;;;;;32.58;16.30;;;;;;;-3.87;100.00;99361.69;4192242;28;20055;-75
2023/02/16 05:45:08;;;;;;;35.75;17.23;;;;;;;-3.83;100.00;99357.38;4195262;28;20045;-75
2023/02/16 05:47:10;;;;;;;36.70;17.33;;;;;;;-3.82;100.00;99369.81;4195007;28;20040;-75
2023/02/16 05:49:10;;;;;;;37.88;17.95;;;;;;;-3.83;100.00;99365.50;4195309;28;20124;-75
2023/02/16 05:51:10;;;;;;;37.60;17.67;;;;;;;-3.84;100.00;99363.88;4193279;28;20145;-75
2023/02/16 05:53:11;;;;;;;36.63;16.52;;;;;;;-3.80;100.00;99367.69;4192254;28;20150;-75
2023/02/16 05:55:11;;;;;;;42.65;19.00;;;;;;;-3.79;100.00;99359.31;4194590;28;20086;-75
2023/02/16 05:57:11;;;;;;;42.78;18.65;;;;;;;-3.70;100.00;99371.25;4197563;28;20049;-75
2023/02/16 05:59:13;;;;;;;43.83;19.00;;;;;;;-3.65;100.00;99364.22;4193179;28;20051;-74
2023/02/16 06:01:14;;;;;;;37.67;17.85;;;;;;;-3.69;100.00;99362.06;4192393;28;20051;-75
2023/02/16 06:03:14;;;;;;;40.55;17.42;;;;;;;-3.69;100.00;99356.66;4194262;28;20044;-75
2023/02/16 06:05:14;;;;;;;37.88;17.55;;;;;;;-3.70;100.00;99356.91;4133032;28;20076;-75
2023/02/16 06:07:14;;;;;;;38.92;18.60;;;;;;;-3.74;100.00;99367.44;4192076;28;20087;-74
2023/02/16 06:09:15;;;;;;;41.38;19.60;;;;;;;-3.70;100.00;99367.72;4197270;28;20048;-75
2023/02/16 06:13:34;;;;;;;47.97;20.48;;;;;;;-3.65;100.00;99365.03;4192110;28;20067;-75
2023/02/16 06:15:34;;;;;;;51.03;21.80;;;;;;;-3.62;100.00;99372.66;4195702;28;20548;-75
2023/02/16 06:17:35;;;;;;;47.15;22.25;;;;;;;-3.49;100.00;99372.16;4192787;28;20258;-75
2023/02/16 06:19:35;;;;;;;47.83;21.15;;;;;;;-3.50;100.00;99381.34;4192772;28;20040;-75
2023/02/16 06:21:37;;;;;;;50.78;20.05;;;;;;;-3.51;100.00;99378.91;4191024;28;20048;-75
2023/02/16 06:23:37;;;;;;;45.25;20.55;;;;;;;-3.55;100.00;99375.13;4191630;28;20109;-75
2023/02/16 06:25:41;;;;;;;45.00;19.45;;;;;;;-3.56;100.00;99376.16;4192723;28;20086;-75
2023/02/16 06:27:42;;;;;;;46.55;20.05;;;;;;;-3.58;100.00;99373.72;4191931;28;20040;-75
2023/02/16 06:29:42;;;;;;;47.90;18.70;;;;;;;-3.56;100.00;99376.97;4191901;28;20538;-75
2023/02/16 06:31:42;;;;;;;44.00;18.60;;;;;;;-3.54;100.00;99371.31;4190624;28;20037;-75
2023/02/16 06:33:43;;;;;;;40.17;17.55;;;;;;;-3.54;100.00;99371.31;4195215;28;20039;-75
2023/02/16 06:35:43;;;;;;;34.70;16.77;;;;;;;-3.52;100.00;99367.28;4198774;28;20082;-75
2023/02/16 06:37:43;;;;;;;40.97;18.13;;;;;;;-3.53;100.00;99362.94;4193553;28;20076;-75
2023/02/16 06:39:44;;;;;;;41.88;17.38;;;;;;;-3.49;100.00;99374.03;4192275;28;20197;-75
2023/02/16 06:41:44;;;;;;;39.22;18.20;;;;;;;-3.51;100.00;99368.91;4192557;28;20032;-75
2023/02/16 06:43:44;;;;;;;37.08;17.55;;;;;;;-3.56;100.00;99368.88;4190967;28;20612;-75
2023/02/16 06:45:46;;;;;;;34.83;16.42;;;;;;;-3.58;100.00;99372.91;4191846;28;20053;-75
2023/02/16 06:47:46;;;;;;;37.17;17.55;;;;;;;-3.58;100.00;99376.44;4192458;28;20380;-75
2023/02/16 06:49:46;;;;;;;42.17;18.35;;;;;;;-3.55;100.00;99369.69;4192861;28;20036;-75
2023/02/16 06:51:48;;;;;;;37.33;18.15;;;;;;;-3.54;100.00;99368.63;4191945;28;20044;-75
2023/02/16 06:53:48;;;;;;;44.72;17.30;;;;;;;-3.51;100.00;99362.66;4191588;28;20381;-74
2023/02/16 06:55:49;;;;;;;40.15;17.50;;;;;;;-3.50;100.00;99359.69;4193743;28;20159;-75
2023/02/16 06:57:50;;;;;;;37.08;16.83;;;;;;;-3.51;100.00;99363.47;4197273;28;20037;-75
2023/02/16 06:59:50;;;;;;;35.03;16.23;;;;;;;-3.49;100.00;99357.81;4191690;28;20040;-75
2023/02/16 07:01:50;;;;;;;36.85;16.38;;;;;;;-3.55;100.00;99351.56;4195539;28;20076;-75
2023/02/16 07:03:52;;;;;;;38.10;16.92;;;;;;;-3.54;100.00;99355.09;4193689;28;20410;-75
2023/02/16 07:05:53;;;;;;;38.15;16.27;;;;;;;-3.56;100.00;99355.34;4190788;28;20049;-75
2023/02/16 07:07:53;;;;;;;32.53;14.80;;;;;;;-3.54;100.00;99363.22;4198219;28;20152;-75
2023/02/16 07:09:54;;;;;;;33.63;15.80;;;;;;;-3.49;100.00;99352.41;4191877;28;20045;-75
2023/02/16 07:11:54;;;;;;;36.90;15.95;;;;;;;-3.48;100.00;99351.31;4191538;28;20052;-75
2023/02/16 07:13:55;;;;;;;34.17;16.25;;;;;;;-3.42;100.00;99350.25;4191054;28;20047;-75
2023/02/16 07:15:55;;;;;;;33.22;15.05;;;;;;;-3.38;100.00;99350.56;4192485;28;20460;-75
2023/02/16 07:17:55;;;;;;;34.55;16.52;;;;;;;-3.35;100.00;99344.59;4195870;28;20404;-75
2023/02/16 07:19:56;;;;;;;31.75;15.80;;;;;;;-3.34;100.00;99352.44;4191099;28;20362;-75
2023/02/16 07:21:56;;;;;;;35.10;16.25;;;;;;;-3.30;100.00;99347.34;4191118;28;20556;-75
2023/02/16 07:23:56;;;;;;;33.35;15.30;;;;;;;-3.28;100.00;99345.16;4190788;28;20043;-75
2023/02/16 07:25:57;;;;;;;36.80;16.42;;;;;;;-3.23;100.00;99326.22;4192726;28;20128;-75
2023/02/16 07:27:57;;;;;;;32.13;16.63;;;;;;;-3.14;100.00;99335.47;4191655;28;20079;-75
2023/02/16 07:29:57;;;;;;;37.13;16.02;;;;;;;-3.09;100.00;99329.25;4191415;28;20041;-75
2023/02/16 07:31:58;;;;;;;35.00;16.05;;;;;;;-2.95;100.00;99325.75;4191402;28;20372;-75
2023/02/16 07:33:58;;;;;;;34.75;16.08;;;;;;;-2.91;100.00;99331.44;4190433;28;20465;-75
2023/02/16 07:35:58;;;;;;;35.30;16.33;;;;;;;-2.89;100.00;99343.63;4191209;28;20039;-75
2023/02/16 07:37:59;;;;;;;33.90;16.25;;;;;;;-2.89;100.00;99349.06;4191332;28;20062;-75
2023/02/16 07:39:59;;;;;;;33.85;15.10;;;;;;;-2.88;100.00;99356.09;4191141;28;20044;-75
2023/02/16 07:41:59;;;;;;;35.00;15.88;;;;;;;-2.79;100.00;99348.25;4191464;28;20739;-75
2023/02/16 07:44:00;;;;;;;35.38;17.50;;;;;;;-2.78;100.00;99354.47;4190327;28;20759;-75
2023/02/16 07:46:00;;;;;;;41.35;19.55;;;;;;;-2.77;100.00;99356.09;4191398;28;20037;-75
2023/02/16 07:48:01;;;;;;;39.88;19.60;;;;;;;-2.77;100.00;99364.22;4191175;28;20049;-75
2023/02/16 07:50:01;;;;;;;42.78;19.63;;;;;;;-2.76;100.00;99363.13;4190739;28;20063;-75
2023/02/16 07:52:02;;;;;;;59.22;28.13;;;;;;;-2.74;100.00;99360.97;4190953;28;20024;-74
2023/02/16 07:54:02;;;;;;;57.33;25.48;;;;;;;-2.68;100.00;99359.91;4190782;28;20029;-75
2023/02/16 07:56:03;;;;;;;48.58;24.33;;;;;;;-2.68;100.00;99360.72;4191011;28;20471;-75
2023/02/16 07:58:03;;;;;;;52.80;24.40;;;;;;;-2.64;100.00;99377.25;4188818;28;20837;-75
2023/02/16 08:00:06;;;;;;;48.33;23.73;;;;;;;-2.56;100.00;99376.72;4191103;28;20024;-75
2023/02/16 08:02:14;;;;;;;40.97;21.27;;;;;;;-2.49;100.00;99384.56;4191520;28;20028;-74
2023/02/16 08:04:14;;;;;;;43.42;21.08;;;;;;;-2.43;100.00;99376.16;4190395;28;20024;-74
2023/02/16 08:06:15;;;;;;;44.85;20.98;;;;;;;-2.40;100.00;99381.06;4190642;28;20081;-74
2023/02/16 08:08:15;;;;;;;37.33;19.40;;;;;;;-2.37;100.00;99387.84;4191004;28;20536;-75
2023/02/16 08:10:16;;;;;;;36.70;18.75;;;;;;;-2.36;100.00;99392.16;4191015;28;20147;-75
2023/02/16 08:12:16;;;;;;;40.13;18.60;;;;;;;-2.35;100.00;99385.66;4190516;28;20063;-75
2023/02/16 08:14:17;;;;;;;42.38;19.83;;;;;;;-2.30;100.00;99393.78;4189947;28;20034;-75
2023/02/16 08:16:27;;;;;;;42.72;19.25;;;;;;;-2.23;100.00;99385.38;4190979;28;20020;-75
2023/02/16 08:18:29;;;;;;;46.60;21.35;;;;;;;-2.18;100.00;99390.78;4190538;28;20165;-75
2023/02/16 08:20:29;;;;;;;43.08;19.42;;;;;;;-2.15;100.00;99382.09;4191114;28;20051;-75
2023/02/16 08:22:29;;;;;;;40.65;18.67;;;;;;;-2.13;100.00;99390.81;4192721;28;20041;-75
2023/02/16 08:24:30;;;;;;;37.22;17.90;;;;;;;-2.08;100.00;99386.16;4190949;28;20414;-75
2023/02/16 08:26:39;;;;;;;36.40;18.58;;;;;;;-2.03;100.00;99383.47;4190651;28;20033;-75
2023/02/16 08:28:44;;;;;;;39.67;17.50;;;;;;;-1.93;100.00;99387.25;4190816;28;20037;-75
2023/02/16 08:30:45;;;;;;;39.20;18.50;;;;;;;-1.83;100.00;99393.44;4190829;28;20036;-75
2023/02/16 08:32:49;;;;;;;42.13;18.02;;;;;;;-1.77;100.00;99391.56;4189515;28;20037;-75
2023/02/16 08:34:50;;;;;;;37.53;17.98;;;;;;;-1.73;100.00;99392.66;4193468;28;20377;-75
2023/02/16 08:36:55;;;;;;;39.50;18.63;;;;;;;-1.63;100.00;99398.03;4194221;28;20043;-75
2023/02/16 08:38:55;;;;;;;40.45;18.50;;;;;;;-1.58;100.00;99398.00;4197373;28;20541;-75
2023/02/16 08:40:55;;;;;;;35.35;17.63;;;;;;;-1.53;100.00;99389.06;4196437;28;20296;-75
2023/02/16 08:42:56;;;;;;;38.83;18.95;;;;;;;-1.33;100.00;99393.59;4193691;28;20127;-75
2023/02/16 08:44:57;;;;;;;42.72;18.92;;;;;;;-1.20;100.00;99382.13;4194044;28;20074;-74
2023/02/16 08:46:59;;;;;;;37.88;18.73;;;;;;;-1.13;100.00;99379.94;4192053;28;20553;-75
2023/02/16 08:49:00;;;;;;;34.80;17.90;;;;;;;-1.09;100.00;99380.16;4194568;28;20087;-75
2023/02/16 08:51:02;;;;;;;34.33;17.63;;;;;;;-1.06;100.00;99383.16;4193626;28;20109;-75
2023/02/16 08:53:02;;;;;;;37.15;18.17;;;;;;;-1.00;100.00;99392.06;4193346;28;20071;-74
2023/02/16 08:55:03;;;;;;;39.80;18.17;;;;;;;-0.82;100.00;99379.78;4194288;28;20045;-75
2023/02/16 08:57:04;;;;;;;38.67;18.73;;;;;;;-0.76;100.00;99378.63;4193882;28;20057;-75
2023/02/16 08:59:05;;;;;;;41.15;20.58;;;;;;;-0.72;100.00;99388.66;4193840;28;20048;-75
2023/02/16 09:01:07;;;;;;;42.83;21.25;;;;;;;-0.70;100.00;99378.31;4192679;28;20041;-75
2023/02/16 09:03:07;;;;;;;42.00;20.30;;;;;;;-0.69;100.00;99384.56;4193348;28;20049;-75
2023/02/16 09:05:08;;;;;;;46.15;21.13;;;;;;;-0.64;100.00;99381.81;4193886;28;20372;-74
2023/02/16 09:07:09;;;;;;;40.78;19.75;;;;;;;-0.60;100.00;99380.16;4197687;28;20048;-75
2023/02/16 09:09:12;;;;;;;37.88;18.17;;;;;;;-0.54;100.00;99380.94;4193270;28;20173;-74
2023/02/16 09:11:13;;;;;;;;;;;;;;;-0.46;100.00;99385.75;4194505;28;20048;-73
2023/02/16 09:13:14;;;;;;;51.00;26.48;;;;;;;-0.42;100.00;99365.88;4194907;28;19912;-75
2023/02/16 09:15:15;;;;;;;43.95;21.30;;;;;;;-0.39;100.00;99365.31;4193936;28;20464;-75
2023/02/16 09:17:15;;;;;;;38.55;18.83;;;;;;;-0.37;100.00;99367.75;4193493;28;20036;-75
2023/02/16 09:19:19;;;;;;;40.22;17.80;;;;;;;-0.37;100.00;99367.75;4193618;28;20048;-74
2023/02/16 09:21:24;;;;;;;39.65;18.13;;;;;;;-0.30;100.00;99368.22;4193492;28;20157;-74
2023/02/16 09:23:24;;;;;;;36.95;18.35;;;;;;;-0.24;100.00;99369.81;4192249;28;20052;-75
2023/02/16 09:25:25;;;;;;;36.00;18.50;;;;;;;-0.24;100.00;99369.81;4195836;28;20033;-75
2023/02/16 09:27:26;;;;;;;36.17;17.92;;;;;;;-0.17;100.00;99372.19;4194262;28;20044;-74
2023/02/16 09:29:26;;;;;;;37.47;17.65;;;;;;;-0.17;100.00;99364.84;4193771;28;20404;-74
2023/02/16 09:31:33;;;;;;;35.15;18.08;;;;;;;-0.10;100.00;99372.66;4192261;28;20052;-74
2023/02/16 09:33:33;;;;;;;38.35;17.80;;;;;;;-0.05;100.00;99378.06;4193045;28;20530;-74
2023/02/16 09:35:34;;;;;;;35.20;17.25;;;;;;;0.03;100.00;99374.75;4193255;28;20119;-75
2023/02/16 09:37:34;;;;;;;38.80;17.60;;;;;;;0.16;100.00;99374.03;4194794;28;20193;-75
2023/02/16 09:39:34;;;;;;;38.13;18.40;;;;;;;0.25;100.00;99377.78;4194033;28;20041;-75
2023/02/16 09:42:02;;;;;;;37.70;17.95;;;;;;;0.37;100.00;99374.66;4192793;28;20122;-75
2023/02/16 09:44:06;;;;;;;39.55;19.65;;;;;;;0.54;100.00;99371.47;4191802;28;20493;-75
2023/02/16 09:46:11;;;;;;;38.15;20.40;;;;;;;0.63;100.00;99379.81;4191954;28;20385;-75
2023/02/16 09:48:31;;;;;;;36.67;17.65;;;;;;;0.68;100.00;99369.66;4193301;28;20032;-75
2023/02/16 09:50:33;;;;;;;39.05;17.92;;;;;;;0.73;100.00;99375.03;4193150;28;20449;-75
2023/02/16 09:52:36;;;;;;;38.90;18.63;;;;;;;0.86;100.00;99376.25;4192420;28;20035;-74
2023/02/16 09:54:42;;;;;;;;;;;;;;;0.96;100.00;99380.75;4198543;28;20043;-72
2023/02/16 09:56:53;;;;;;;35.95;17.05;;;;;;;1.18;100.00;99369.28;4192764;28;19953;-75
2023/02/16 09:59:00;;;;;;;45.38;18.90;;;;;;;1.37;100.00;99370.91;4192657;28;20047;-74
2023/02/16 10:01:43;;;;;;;37.88;16.52;;;;;;;1.51;100.00;99379.16;4192602;28;20083;-75
2023/02/16 10:04:05;;;;;;;40.65;17.70;;;;;;;1.65;100.00;99363.63;4191406;28;20483;-74
2023/02/16 10:06:09;;;;;;;37.65;18.75;;;;;;;1.85;100.00;99367.97;4191739;28;20028;-74
2023/02/16 10:08:14;;;;;;;37.58;19.27;;;;;;;2.02;100.00;99359.22;4192597;28;20032;-75